sensor_id;sensor_type;location;lat;lon;timestamp;pressure;altitude;pressure_sealevel;temperature;humidity
66762;BME280;53672;48.176;16.338;2023-01-26T00:04:08;99819.88;;;0.05;100.00
66762;BME280;53672;48.176;16.338;2023-01-26T00:09:11;99817.22;;;0.05;100.00
66762;BME280;53672;48.176;16.338;2023-01-26T00:14:12;99810.09;;;0.05;100.00
66762;BME280;53672;48.176;16.338;2023-01-26T00:19:13;99799.28;;;0.00;100.00
66762;BME280;53672;48.176;16.338;2023-01-26T00:24:15;99801.09;;;-0.01;100.00
66762;BME280;53672;48.176;16.338;2023-01-26T00:29:15;99796.63;;;0.00;100.00
66762;BME280;53672;48.176;16.338;2023-01-26T00:34:16;99793.38;;;0.05;100.00
66762;BME280;53672;48.176;16.338;2023-01-26T00:39:18;99792.34;;;0.06;100.00
66762;BME280;53672;48.176;16.338;2023-01-26T00:44:18;99792.97;;;0.08;100.00
66762;BME280;53672;48.176;16.338;2023-01-26T00:49:19;99782.97;;;0.03;100.00
66762;BME280;53672;48.176;16.338;2023-01-26T00:54:20;99767.72;;;0.12;100.00
66762;BME280;53672;48.176;16.338;2023-01-26T00:59:21;99765.19;;;-0.03;100.00
66762;BME280;53672;48.176;16.338;2023-01-26T01:04:22;99769.72;;;0.03;100.00
66762;BME280;53672;48.176;16.338;2023-01-26T01:09:24;99766.88;;;0.05;100.00
66762;BME280;53672;48.176;16.338;2023-01-26T01:14:25;99754.25;;;0.07;100.00
66762;BME280;53672;48.176;16.338;2023-01-26T01:19:25;99752.19;;;0.02;100.00
66762;BME280;53672;48.176;16.338;2023-01-26T01:24:27;99747.50;;;0.04;100.00
66762;BME280;53672;48.176;16.338;2023-01-26T01:29:27;99735.09;;;0.11;100.00
66762;BME280;53672;48.176;16.338;2023-01-26T01:34:28;99735.91;;;0.05;100.00
66762;BME280;53672;48.176;16.338;2023-01-26T01:39:30;99731.41;;;0.06;100.00
66762;BME280;53672;48.176;16.338;2023-01-26T01:44:33;99729.38;;;0.08;100.00
66762;BME280;53672;48.176;16.338;2023-01-26T01:49:37;99728.81;;;0.19;100.00
66762;BME280;53672;48.176;16.338;2023-01-26T01:54:43;99722.09;;;0.23;100.00
66762;BME280;53672;48.176;16.338;2023-01-26T01:59:48;99723.53;;;0.25;100.00
66762;BME280;53672;48.176;16.338;2023-01-26T02:04:51;99709.88;;;0.28;100.00
66762;BME280;53672;48.176;16.338;2023-01-26T02:09:54;99704.56;;;0.28;100.00
66762;BME280;53672;48.176;16.338;2023-01-26T02:14:56;99695.59;;;0.16;100.00
66762;BME280;53672;48.176;16.338;2023-01-26T02:20:02;99686.44;;;0.25;100.00
66762;BME280;53672;48.176;16.338;2023-01-26T02:25:12;99677.88;;;0.30;100.00
66762;BME280;53672;48.176;16.338;2023-01-26T02:30:21;99680.31;;;0.25;100.00
66762;BME280;53672;48.176;16.338;2023-01-26T02:35:22;99672.38;;;0.31;100.00
66762;BME280;53672;48.176;16.338;2023-01-26T02:40:28;99669.28;;;0.28;100.00
66762;BME280;53672;48.176;16.338;2023-01-26T02:45:33;99670.13;;;0.35;100.00
66762;BME280;53672;48.176;16.338;2023-01-26T02:50:34;99663.16;;;0.21;100.00
66762;BME280;53672;48.176;16.338;2023-01-26T02:55:34;99652.13;;;0.11;100.00
66762;BME280;53672;48.176;16.338;2023-01-26T03:00:36;99645.81;;;0.12;100.00
66762;BME280;53672;48.176;16.338;2023-01-26T03:05:37;99645.63;;;0.13;100.00
66762;BME280;53672;48.176;16.338;2023-01-26T03:10:38;99644.56;;;0.01;100.00
66762;BME280;53672;48.176;16.338;2023-01-26T03:15:40;99645.41;;;0.08;100.00
66762;BME280;53672;48.176;16.338;2023-01-26T03:20:41;99644.75;;;-0.07;100.00
66762;BME280;53672;48.176;16.338;2023-01-26T03:25:41;99649.25;;;-0.01;100.00
66762;BME280;53672;48.176;16.338;2023-01-26T03:30:43;99633.78;;;0.03;100.00
66762;BME280;53672;48.176;16.338;2023-01-26T03:35:44;99636.03;;;0.06;100.00
66762;BME280;53672;48.176;16.338;2023-01-26T03:40:45;99633.56;;;-0.03;100.00
66762;BME280;53672;48.176;16.338;2023-01-26T03:45:46;99628.69;;;0.08;100.00
66762;BME280;53672;48.176;16.338;2023-01-26T03:50:47;99624.22;;;0.08;100.00
66762;BME280;53672;48.176;16.338;2023-01-26T03:55:47;99622.56;;;0.07;100.00
66762;BME280;53672;48.176;16.338;2023-01-26T04:00:49;99615.25;;;0.03;100.00
66762;BME280;53672;48.176;16.338;2023-01-26T04:05:50;99613.59;;;0.08;100.00
66762;BME280;53672;48.176;16.338;2023-01-26T04:10:50;99604.66;;;0.16;100.00
66762;BME280;53672;48.176;16.338;2023-01-26T04:15:52;99603.41;;;-0.02;100.00
66762;BME280;53672;48.176;16.338;2023-01-26T04:20:53;99599.75;;;-0.01;100.00
66762;BME280;53672;48.176;16.338;2023-01-26T04:25:53;99594.03;;;0.03;100.00
66762;BME280;53672;48.176;16.338;2023-01-26T04:30:55;99593.63;;;-0.08;100.00
66762;BME280;53672;48.176;16.338;2023-01-26T04:35:55;99597.09;;;-0.01;100.00
66762;BME280;53672;48.176;16.338;2023-01-26T04:40:56;99594.03;;;-0.04;100.00
66762;BME280;53672;48.176;16.338;2023-01-26T04:45:59;99583.84;;;-0.01;100.00
66762;BME280;53672;48.176;16.338;2023-01-26T04:51:03;99586.69;;;-0.02;100.00
66762;BME280;53672;48.176;16.338;2023-01-26T04:56:04;99577.34;;;0.09;100.00
66762;BME280;53672;48.176;16.338;2023-01-26T05:01:07;99569.56;;;0.00;100.00
66762;BME280;53672;48.176;16.338;2023-01-26T05:06:08;99566.50;;;0.04;100.00
66762;BME280;53672;48.176;16.338;2023-01-26T05:11:09;99559.19;;;-0.01;100.00
66762;BME280;53672;48.176;16.338;2023-01-26T05:16:11;99560.59;;;0.02;100.00
66762;BME280;53672;48.176;16.338;2023-01-26T05:21:12;99562.44;;;-0.06;100.00
66762;BME280;53672;48.176;16.338;2023-01-26T05:26:12;99559.38;;;-0.03;100.00
66762;BME280;53672;48.176;16.338;2023-01-26T05:31:14;99559.38;;;0.04;100.00
66762;BME280;53672;48.176;16.338;2023-01-26T05:36:15;99555.13;;;0.10;100.00
66762;BME280;53672;48.176;16.338;2023-01-26T05:41:15;99550.44;;;0.12;100.00
66762;BME280;53672;48.176;16.338;2023-01-26T05:46:17;99552.06;;;0.13;100.00
66762;BME280;53672;48.176;16.338;2023-01-26T05:51:17;99557.78;;;0.16;100.00
66762;BME280;53672;48.176;16.338;2023-01-26T05:56:18;99568.78;;;0.20;100.00
66762;BME280;53672;48.176;16.338;2023-01-26T06:01:20;99561.66;;;0.20;100.00
66762;BME280;53672;48.176;16.338;2023-01-26T06:06:20;99568.38;;;0.29;100.00
66762;BME280;53672;48.176;16.338;2023-01-26T06:11:21;99565.72;;;0.23;100.00
66762;BME280;53672;48.176;16.338;2023-01-26T06:16:23;99560.63;;;0.28;100.00
66762;BME280;53672;48.176;16.338;2023-01-26T06:21:23;99560.44;;;0.29;100.00
66762;BME280;53672;48.176;16.338;2023-01-26T06:26:24;99554.72;;;0.32;100.00
66762;BME280;53672;48.176;16.338;2023-01-26T06:31:26;99557.59;;;0.37;100.00
66762;BME280;53672;48.176;16.338;2023-01-26T06:36:26;99548.59;;;0.32;100.00
66762;BME280;53672;48.176;16.338;2023-01-26T06:41:27;99552.06;;;0.32;100.00
66762;BME280;53672;48.176;16.338;2023-01-26T06:46:29;99555.72;;;0.38;100.00
66762;BME280;53672;48.176;16.338;2023-01-26T06:51:46;99560.03;;;0.39;100.00
66762;BME280;53672;48.176;16.338;2023-01-26T06:56:47;99557.78;;;0.36;100.00
66762;BME280;53672;48.176;16.338;2023-01-26T07:01:49;99561.06;;;0.51;100.00
66762;BME280;53672;48.176;16.338;2023-01-26T07:06:49;99563.28;;;0.54;100.00
66762;BME280;53672;48.176;16.338;2023-01-26T07:11:50;99558.19;;;0.46;100.00
66762;BME280;53672;48.176;16.338;2023-01-26T07:16:51;99562.06;;;0.50;100.00
66762;BME280;53672;48.176;16.338;2023-01-26T07:21:52;99559.81;;;0.40;100.00
66762;BME280;53672;48.176;16.338;2023-01-26T07:26:52;99552.06;;;0.52;100.00
66762;BME280;53672;48.176;16.338;2023-01-26T07:31:54;99552.69;;;0.47;100.00
66762;BME280;53672;48.176;16.338;2023-01-26T07:36:55;99547.56;;;0.59;100.00
66762;BME280;53672;48.176;16.338;2023-01-26T07:41:55;99543.91;;;0.60;100.00
66762;BME280;53672;48.176;16.338;2023-01-26T07:46:57;99545.94;;;0.65;100.00
66762;BME280;53672;48.176;16.338;2023-01-26T07:51:58;99550.19;;;0.72;100.00
66762;BME280;53672;48.176;16.338;2023-01-26T07:56:58;99541.66;;;0.57;100.00
66762;BME280;53672;48.176;16.338;2023-01-26T08:02:00;99541.88;;;0.49;100.00
66762;BME280;53672;48.176;16.338;2023-01-26T08:07:01;99545.53;;;0.48;100.00
66762;BME280;53672;48.176;16.338;2023-01-26T08:12:01;99552.88;;;0.59;100.00
66762;BME280;53672;48.176;16.338;2023-01-26T08:17:03;99547.97;;;0.56;100.00
66762;BME280;53672;48.176;16.338;2023-01-26T08:22:04;99543.47;;;0.63;100.00
66762;BME280;53672;48.176;16.338;2023-01-26T08:27:04;99547.16;;;0.62;100.00
66762;BME280;53672;48.176;16.338;2023-01-26T08:32:06;99541.03;;;0.55;100.00
66762;BME280;53672;48.176;16.338;2023-01-26T08:37:07;99547.97;;;0.69;100.00
66762;BME280;53672;48.176;16.338;2023-01-26T08:42:07;99542.66;;;0.69;100.00
66762;BME280;53672;48.176;16.338;2023-01-26T08:47:09;99527.38;;;0.71;100.00
66762;BME280;53672;48.176;16.338;2023-01-26T08:52:09;99530.44;;;0.55;100.00
66762;BME280;53672;48.176;16.338;2023-01-26T08:57:10;99526.72;;;0.76;100.00
66762;BME280;53672;48.176;16.338;2023-01-26T09:02:12;99532.44;;;0.92;100.00
66762;BME280;53672;48.176;16.338;2023-01-26T09:07:12;99533.44;;;0.91;100.00
66762;BME280;53672;48.176;16.338;2023-01-26T09:12:13;99533.91;;;0.75;100.00
66762;BME280;53672;48.176;16.338;2023-01-26T09:17:15;99536.94;;;0.72;100.00
66762;BME280;53672;48.176;16.338;2023-01-26T09:22:15;99541.03;;;0.75;100.00
66762;BME280;53672;48.176;16.338;2023-01-26T09:27:16;99537.31;;;0.82;100.00
66762;BME280;53672;48.176;16.338;2023-01-26T09:32:18;99545.28;;;0.76;100.00
66762;BME280;53672;48.176;16.338;2023-01-26T09:37:18;99530.16;;;1.02;100.00
66762;BME280;53672;48.176;16.338;2023-01-26T09:42:31;99522.97;;;1.03;100.00
66762;BME280;53672;48.176;16.338;2023-01-26T09:47:47;99518.13;;;0.87;100.00
66762;BME280;53672;48.176;16.338;2023-01-26T09:52:54;99509.97;;;0.95;100.00
66762;BME280;53672;48.176;16.338;2023-01-26T09:57:59;99511.09;;;1.19;100.00
66762;BME280;53672;48.176;16.338;2023-01-26T10:03:10;99510.72;;;1.09;100.00
66762;BME280;53672;48.176;16.338;2023-01-26T10:08:16;99508.66;;;1.11;100.00
66762;BME280;53672;48.176;16.338;2023-01-26T10:13:19;99505.97;;;1.24;100.00
66762;BME280;53672;48.176;16.338;2023-01-26T10:18:26;99497.56;;;1.33;100.00
66762;BME280;53672;48.176;16.338;2023-01-26T10:23:31;99495.97;;;1.26;100.00
66762;BME280;53672;48.176;16.338;2023-01-26T10:28:32;99495.38;;;1.17;100.00
66762;BME280;53672;48.176;16.338;2023-01-26T10:33:36;99487.81;;;1.21;100.00
66762;BME280;53672;48.176;16.338;2023-01-26T10:38:39;99483.09;;;1.29;100.00
66762;BME280;53672;48.176;16.338;2023-01-26T10:43:41;99476.59;;;1.57;100.00
66762;BME280;53672;48.176;16.338;2023-01-26T10:48:50;99462.22;;;1.71;100.00
66762;BME280;53672;48.176;16.338;2023-01-26T10:54:12;99455.78;;;1.78;98.79
66762;BME280;53672;48.176;16.338;2023-01-26T10:59:30;99452.81;;;1.68;98.94
66762;BME280;53672;48.176;16.338;2023-01-26T11:04:33;99444.44;;;1.40;96.80
66762;BME280;53672;48.176;16.338;2023-01-26T11:09:34;99438.00;;;1.54;97.40
66762;BME280;53672;48.176;16.338;2023-01-26T11:14:34;99438.47;;;1.44;97.29
66762;BME280;53672;48.176;16.338;2023-01-26T11:19:46;99433.34;;;1.49;96.02
66762;BME280;53672;48.176;16.338;2023-01-26T11:24:55;99425.22;;;1.69;97.20
66762;BME280;53672;48.176;16.338;2023-01-26T11:30:14;99416.75;;;1.79;95.42
66762;BME280;53672;48.176;16.338;2023-01-26T11:35:28;99412.44;;;1.84;95.12
66762;BME280;53672;48.176;16.338;2023-01-26T11:40:35;99399.09;;;1.91;95.08
66762;BME280;53672;48.176;16.338;2023-01-26T11:45:54;99396.59;;;1.96;95.09
66762;BME280;53672;48.176;16.338;2023-01-26T11:51:06;99386.78;;;1.96;96.27
66762;BME280;53672;48.176;16.338;2023-01-26T11:56:23;99395.31;;;2.23;92.83
66762;BME280;53672;48.176;16.338;2023-01-26T12:01:30;99375.88;;;2.23;92.53
66762;BME280;53672;48.176;16.338;2023-01-26T12:06:36;99367.59;;;2.13;93.28
66762;BME280;53672;48.176;16.338;2023-01-26T12:11:40;99361.94;;;2.27;92.77
66762;BME280;53672;48.176;16.338;2023-01-26T12:22:13;99356.22;;;2.24;93.18
66762;BME280;53672;48.176;16.338;2023-01-26T12:27:21;99343.63;;;2.19;92.14
66762;BME280;53672;48.176;16.338;2023-01-26T12:32:23;99343.59;;;2.55;89.19
66762;BME280;53672;48.176;16.338;2023-01-26T12:37:43;99341.97;;;2.54;88.99
66762;BME280;53672;48.176;16.338;2023-01-26T12:42:48;99338.38;;;2.31;90.49
66762;BME280;53672;48.176;16.338;2023-01-26T12:47:54;99332.25;;;2.12;89.33
66762;BME280;53672;48.176;16.338;2023-01-26T12:53:00;99333.94;;;2.25;90.10
66762;BME280;53672;48.176;16.338;2023-01-26T12:58:08;99337.19;;;2.45;88.38
66762;BME280;53672;48.176;16.338;2023-01-26T13:03:15;99330.22;;;2.44;87.41
66762;BME280;53672;48.176;16.338;2023-01-26T13:08:39;99328.03;;;2.41;87.69
66762;BME280;53672;48.176;16.338;2023-01-26T13:13:52;99336.44;;;2.38;87.99
66762;BME280;53672;48.176;16.338;2023-01-26T13:18:54;99325.97;;;2.25;89.18
66762;BME280;53672;48.176;16.338;2023-01-26T13:23:56;99320.19;;;2.28;90.34
66762;BME280;53672;48.176;16.338;2023-01-26T13:34:35;99325.97;;;2.25;91.97
66762;BME280;53672;48.176;16.338;2023-01-26T13:39:40;99324.31;;;2.24;92.85
66762;BME280;53672;48.176;16.338;2023-01-26T13:44:48;99331.94;;;2.20;92.03
66762;BME280;53672;48.176;16.338;2023-01-26T13:49:50;99331.44;;;2.12;94.10
66762;BME280;53672;48.176;16.338;2023-01-26T13:54:54;99329.41;;;2.07;95.50
66762;BME280;53672;48.176;16.338;2023-01-26T13:59:56;99334.38;;;2.03;96.91
66762;BME280;53672;48.176;16.338;2023-01-26T14:04:59;99330.81;;;1.91;96.74
66762;BME280;53672;48.176;16.338;2023-01-26T14:10:02;99343.50;;;1.89;98.96
66762;BME280;53672;48.176;16.338;2023-01-26T14:15:05;99333.31;;;1.86;99.56
66762;BME280;53672;48.176;16.338;2023-01-26T14:20:17;99334.13;;;1.87;99.44
66762;BME280;53672;48.176;16.338;2023-01-26T14:25:21;99337.38;;;1.89;98.63
66762;BME280;53672;48.176;16.338;2023-01-26T14:30:25;99338.84;;;1.85;98.71
66762;BME280;53672;48.176;16.338;2023-01-26T14:35:26;99345.84;;;1.79;99.03
66762;BME280;53672;48.176;16.338;2023-01-26T14:40:28;99350.19;;;1.74;99.69
66762;BME280;53672;48.176;16.338;2023-01-26T14:45:30;99353.44;;;1.76;99.18
66762;BME280;53672;48.176;16.338;2023-01-26T14:50:31;99345.31;;;1.71;98.64
66762;BME280;53672;48.176;16.338;2023-01-26T14:55:34;99347.75;;;1.72;99.01
66762;BME280;53672;48.176;16.338;2023-01-26T15:00:36;99336.97;;;1.67;99.37
66762;BME280;53672;48.176;16.338;2023-01-26T15:05:38;99339.63;;;1.67;99.92
66762;BME280;53672;48.176;16.338;2023-01-26T15:10:41;99334.91;;;1.69;99.04
66762;BME280;53672;48.176;16.338;2023-01-26T15:15:43;99339.19;;;1.70;98.64
66762;BME280;53672;48.176;16.338;2023-01-26T15:20:52;99343.25;;;1.73;97.33
66762;BME280;53672;48.176;16.338;2023-01-26T15:25:55;99351.28;;;1.66;98.60
66762;BME280;53672;48.176;16.338;2023-01-26T15:31:03;99347.84;;;1.59;98.48
66762;BME280;53672;48.176;16.338;2023-01-26T15:36:05;99356.41;;;1.61;98.09
66762;BME280;53672;48.176;16.338;2023-01-26T15:41:08;99354.19;;;1.58;99.98
66762;BME280;53672;48.176;16.338;2023-01-26T15:46:09;99359.06;;;1.61;98.67
66762;BME280;53672;48.176;16.338;2023-01-26T15:51:11;99367.69;;;1.57;98.98
66762;BME280;53672;48.176;16.338;2023-01-26T15:56:14;99365.25;;;1.55;100.00
66762;BME280;53672;48.176;16.338;2023-01-26T16:01:19;99367.31;;;1.53;100.00
66762;BME280;53672;48.176;16.338;2023-01-26T16:06:22;99366.31;;;1.54;100.00
66762;BME280;53672;48.176;16.338;2023-01-26T16:11:27;99363.66;;;1.54;100.00
66762;BME280;53672;48.176;16.338;2023-01-26T16:16:29;99364.28;;;1.49;100.00
66762;BME280;53672;48.176;16.338;2023-01-26T16:21:33;99358.59;;;1.46;100.00
66762;BME280;53672;48.176;16.338;2023-01-26T16:26:36;99363.50;;;1.42;100.00
66762;BME280;53672;48.176;16.338;2023-01-26T16:31:36;99360.28;;;1.40;100.00
66762;BME280;53672;48.176;16.338;2023-01-26T16:36:37;99357.63;;;1.40;100.00
66762;BME280;53672;48.176;16.338;2023-01-26T16:41:39;99361.06;;;1.41;100.00
66762;BME280;53672;48.176;16.338;2023-01-26T16:46:39;99362.31;;;1.38;100.00
66762;BME280;53672;48.176;16.338;2023-01-26T16:51:40;99366.81;;;1.38;100.00
66762;BME280;53672;48.176;16.338;2023-01-26T16:56:43;99359.50;;;1.33;100.00
66762;BME280;53672;48.176;16.338;2023-01-26T17:01:44;99359.31;;;1.28;100.00
66762;BME280;53672;48.176;16.338;2023-01-26T17:06:45;99360.34;;;1.27;100.00
66762;BME280;53672;48.176;16.338;2023-01-26T17:11:47;99361.16;;;1.28;100.00
66762;BME280;53672;48.176;16.338;2023-01-26T17:16:48;99353.03;;;1.23;100.00
66762;BME280;53672;48.176;16.338;2023-01-26T17:21:48;99361.22;;;1.21;100.00
66762;BME280;53672;48.176;16.338;2023-01-26T17:26:50;99362.59;;;1.24;100.00
66762;BME280;53672;48.176;16.338;2023-01-26T17:31:51;99367.28;;;1.28;100.00
66762;BME280;53672;48.176;16.338;2023-01-26T17:36:52;99364.84;;;1.27;100.00
66762;BME280;53672;48.176;16.338;2023-01-26T17:41:54;99365.88;;;1.26;100.00
66762;BME280;53672;48.176;16.338;2023-01-26T17:46:54;99362.19;;;1.27;100.00
66762;BME280;53672;48.176;16.338;2023-01-26T17:51:55;99367.13;;;1.23;100.00
66762;BME280;53672;48.176;16.338;2023-01-26T17:56:57;99361.00;;;1.23;100.00
66762;BME280;53672;48.176;16.338;2023-01-26T18:01:58;99368.31;;;1.27;100.00
66762;BME280;53672;48.176;16.338;2023-01-26T18:06:58;99358.34;;;1.23;100.00
66762;BME280;53672;48.176;16.338;2023-01-26T18:12:00;99358.34;;;1.23;100.00
66762;BME280;53672;48.176;16.338;2023-01-26T18:17:01;99360.63;;;1.19;100.00
66762;BME280;53672;48.176;16.338;2023-01-26T18:22:02;99353.88;;;1.17;100.00
66762;BME280;53672;48.176;16.338;2023-01-26T18:27:05;99361.25;;;1.15;100.00
66762;BME280;53672;48.176;16.338;2023-01-26T18:32:06;99354.69;;;1.17;100.00
66762;BME280;53672;48.176;16.338;2023-01-26T18:37:07;99356.13;;;1.20;100.00
66762;BME280;53672;48.176;16.338;2023-01-26T18:42:09;99356.81;;;1.09;100.00
66762;BME280;53672;48.176;16.338;2023-01-26T18:47:10;99360.31;;;1.02;100.00
66762;BME280;53672;48.176;16.338;2023-01-26T18:52:11;99358.72;;;0.95;100.00
66762;BME280;53672;48.176;16.338;2023-01-26T18:57:13;99363.22;;;0.94;100.00
66762;BME280;53672;48.176;16.338;2023-01-26T19:02:14;99363.78;;;0.96;100.00
66762;BME280;53672;48.176;16.338;2023-01-26T19:07:15;99360.16;;;0.91;100.00
66762;BME280;53672;48.176;16.338;2023-01-26T19:12:18;99355.69;;;0.91;100.00
66762;BME280;53672;48.176;16.338;2023-01-26T19:17:19;99356.09;;;0.88;100.00
66762;BME280;53672;48.176;16.338;2023-01-26T19:22:21;99354.47;;;0.87;100.00
66762;BME280;53672;48.176;16.338;2023-01-26T19:27:24;99355.47;;;0.86;100.00
66762;BME280;53672;48.176;16.338;2023-01-26T19:32:24;99353.25;;;0.83;100.00
66762;BME280;53672;48.176;16.338;2023-01-26T19:37:25;99357.16;;;0.81;99.54
66762;BME280;53672;48.176;16.338;2023-01-26T19:42:27;99342.25;;;0.80;97.96
66762;BME280;53672;48.176;16.338;2023-01-26T19:47:28;99342.28;;;0.73;98.23
66762;BME280;53672;48.176;16.338;2023-01-26T19:52:30;99336.59;;;0.70;97.68
66762;BME280;53672;48.176;16.338;2023-01-26T19:57:32;99341.09;;;0.69;96.87
66762;BME280;53672;48.176;16.338;2023-01-26T20:02:33;99346.81;;;0.66;97.19
66762;BME280;53672;48.176;16.338;2023-01-26T20:07:34;99346.41;;;0.63;96.02
66762;BME280;53672;48.176;16.338;2023-01-26T20:12:37;99354.19;;;0.64;96.08
66762;BME280;53672;48.176;16.338;2023-01-26T20:17:37;99355.59;;;0.67;95.63
66762;BME280;53672;48.176;16.338;2023-01-26T20:22:39;99367.03;;;0.61;94.94
66762;BME280;53672;48.176;16.338;2023-01-26T20:27:41;99360.72;;;0.55;96.03
66762;BME280;53672;48.176;16.338;2023-01-26T20:32:43;99362.78;;;0.53;95.58
66762;BME280;53672;48.176;16.338;2023-01-26T20:37:44;99355.84;;;0.52;95.65
66762;BME280;53672;48.176;16.338;2023-01-26T20:42:46;99358.31;;;0.54;95.56
66762;BME280;53672;48.176;16.338;2023-01-26T20:47:47;99359.53;;;0.51;96.44
66762;BME280;53672;48.176;16.338;2023-01-26T20:52:48;99357.47;;;0.53;96.39
66762;BME280;53672;48.176;16.338;2023-01-26T20:57:50;99345.66;;;0.49;95.51
66762;BME280;53672;48.176;16.338;2023-01-26T21:02:51;99345.03;;;0.54;94.38
66762;BME280;53672;48.176;16.338;2023-01-26T21:07:52;99339.31;;;0.57;93.97
66762;BME280;53672;48.176;16.338;2023-01-26T21:12:55;99341.78;;;0.58;94.61
66762;BME280;53672;48.176;16.338;2023-01-26T21:17:55;99344.44;;;0.58;94.41
66762;BME280;53672;48.176;16.338;2023-01-26T21:22:56;99337.69;;;0.56;93.83
66762;BME280;53672;48.176;16.338;2023-01-26T21:27:59;99340.34;;;0.56;94.42
66762;BME280;53672;48.176;16.338;2023-01-26T21:33:00;99348.50;;;0.54;94.74
66762;BME280;53672;48.176;16.338;2023-01-26T21:38:00;99348.69;;;0.59;94.37
66762;BME280;53672;48.176;16.338;2023-01-26T21:43:02;99345.59;;;0.62;94.54
66762;BME280;53672;48.176;16.338;2023-01-26T21:48:05;99339.09;;;0.65;94.98
66762;BME280;53672;48.176;16.338;2023-01-26T21:53:06;99340.09;;;0.64;93.42
66762;BME280;53672;48.176;16.338;2023-01-26T21:58:08;99340.09;;;0.64;93.92
66762;BME280;53672;48.176;16.338;2023-01-26T22:03:09;99339.50;;;0.62;94.44
66762;BME280;53672;48.176;16.338;2023-01-26T22:08:10;99342.38;;;0.60;93.83
66762;BME280;53672;48.176;16.338;2023-01-26T22:13:12;99338.69;;;0.61;95.87
66762;BME280;53672;48.176;16.338;2023-01-26T22:18:12;99341.34;;;0.61;95.78
66762;BME280;53672;48.176;16.338;2023-01-26T22:23:13;99341.13;;;0.63;93.70
66762;BME280;53672;48.176;16.338;2023-01-26T22:28:14;99336.47;;;0.58;94.68
66762;BME280;53672;48.176;16.338;2023-01-26T22:33:15;99335.66;;;0.58;94.13
66762;BME280;53672;48.176;16.338;2023-01-26T22:38:16;99322.19;;;0.52;94.82
66762;BME280;53672;48.176;16.338;2023-01-26T22:43:17;99319.53;;;0.52;94.08
66762;BME280;53672;48.176;16.338;2023-01-26T22:48:18;99312.84;;;0.50;93.63
66762;BME280;53672;48.176;16.338;2023-01-26T22:53:19;99304.09;;;0.43;93.95
66762;BME280;53672;48.176;16.338;2023-01-26T22:58:21;99298.78;;;0.43;93.81
66762;BME280;53672;48.176;16.338;2023-01-26T23:03:22;99294.31;;;0.43;93.18
66762;BME280;53672;48.176;16.338;2023-01-26T23:08:22;99292.09;;;0.40;94.03
66762;BME280;53672;48.176;16.338;2023-01-26T23:13:24;99284.56;;;0.37;93.92
66762;BME280;53672;48.176;16.338;2023-01-26T23:18:25;99291.47;;;0.38;93.04
66762;BME280;53672;48.176;16.338;2023-01-26T23:23:25;99271.09;;;0.32;92.65
66762;BME280;53672;48.176;16.338;2023-01-26T23:28:29;99268.25;;;0.34;92.23
66762;BME280;53672;48.176;16.338;2023-01-26T23:33:32;99274.56;;;0.33;93.38
66762;BME280;53672;48.176;16.338;2023-01-26T23:38:33;99261.09;;;0.34;93.62
66762;BME280;53672;48.176;16.338;2023-01-26T23:43:35;99264.13;;;0.38;94.73
66762;BME280;53672;48.176;16.338;2023-01-26T23:48:36;99262.53;;;0.37;95.39
66762;BME280;53672;48.176;16.338;2023-01-26T23:53:37;99259.69;;;0.32;95.43
66762;BME280;53672;48.176;16.338;2023-01-26T23:58:39;99266.22;;;0.29;96.06
